Mehmet Bey — 9HUD6 — position and weather

sailwx.info

Track history (hours):
 
Tides and Currents Weather Stations Pressure Air Temp Water Temp Dewpoint Dewpoint Depression Visibility Wind Speed Wind Dir Waves Ship Positions

Mehmet Bey

Last reported at 2014-Dec-12 13:17 UTC. Time now 2014-Dec-19 15:51 UTC.
Position N 36°26' W 001°39'.

Length 131 m; draft 8.1 m.

Type: Cargo ship. MMSI: 248864000.

Date/timePositionNaut miles runAvg speedWind from/ knotsBaromVisibWave heightAir tempDewpointWater temp
2014-Dec-12 13:17N 36°26' W 001°39'175 8.8
2014-Dec-11 17:33N 36°01' W 005°13'9 9.1
2014-Dec-11 16:33N 35°58' W 005°24'214 6.6
2014-Dec-10 08:10N 37°42' W 009°17'5 8.9
2014-Dec-10 07:33N 37°47' W 009°15'8 8.4
2014-Dec-10 06:33N 37°55' W 009°12'8 8.4
2014-Dec-10 05:33N 38°03' W 009°09'9 8.6
2014-Dec-10 04:33N 38°11' W 009°05'9 8.8
2014-Dec-10 03:33N 38°20' W 009°02'8 8.3
2014-Dec-10 02:33N 38°27' W 008°58'6 5.5
2014-Dec-10 01:32N 38°31' W 008°52'0 0.0
2014-Dec-10 00:32N 38°31' W 008°52'0 0.0
2014-Dec-09 23:32N 38°31' W 008°52'0 0.0
2014-Dec-09 22:32N 38°31' W 008°52'0 0.0
2014-Dec-09 21:29N 38°31' W 008°52'0 0.0
2014-Dec-09 20:29N 38°31' W 008°52'0 0.0
2014-Dec-09 19:29N 38°31' W 008°52'0 0.0
2014-Dec-09 18:32N 38°31' W 008°52'0 0.0
2014-Dec-09 17:26N 38°31' W 008°52'0 0.0
2014-Dec-09 16:32N 38°31' W 008°52'0 0.0
2014-Dec-09 15:26N 38°31' W 008°52'0 0.0
2014-Dec-09 14:32N 38°31' W 008°52'0 0.0
2014-Dec-09 13:32N 38°31' W 008°52'0 0.0
2014-Dec-09 12:32N 38°31' W 008°52'0 0.0
2014-Dec-09 11:29N 38°31' W 008°52'0 0.0
2014-Dec-09 10:32N 38°31' W 008°52'0 0.0
2014-Dec-09 09:32N 38°31' W 008°52'0 0.0
2014-Dec-09 08:32N 38°31' W 008°52'0 0.0
2014-Dec-09 07:32N 38°31' W 008°52'0 0.0
2014-Dec-09 06:29N 38°31' W 008°52'0 0.0
2014-Dec-09 05:32N 38°31' W 008°52'0 0.0
2014-Dec-09 04:32N 38°31' W 008°52'0 0.0
2014-Dec-09 03:32N 38°31' W 008°52'0 0.0
2014-Dec-09 02:32N 38°31' W 008°52'0 0.0
2014-Dec-09 01:32N 38°31' W 008°52'0 0.0
2014-Dec-09 00:32N 38°31' W 008°52'0 0.0
2014-Dec-08 23:26N 38°31' W 008°52'0 0.0
2014-Dec-08 22:29N 38°31' W 008°52'0 0.0
2014-Dec-08 21:32N 38°31' W 008°52'0 0.0
2014-Dec-08 20:17N 38°31' W 008°52'0 0.0
2014-Dec-08 19:32N 38°31' W 008°52'0 0.0
2014-Dec-08 18:32N 38°31' W 008°52'0 0.0
2014-Dec-08 17:23N 38°31' W 008°52'0 0.0
2014-Dec-08 16:26N 38°31' W 008°52'0 0.0
2014-Dec-08 15:32N 38°31' W 008°52'0 0.0
2014-Dec-08 14:26N 38°31' W 008°52'0 0.0
2014-Dec-08 13:29N 38°31' W 008°52'0 0.0
2014-Dec-08 12:23N 38°31' W 008°52'0 0.0
2014-Dec-08 11:17N 38°31' W 008°52'0 0.0
2014-Dec-08 10:29N 38°31' W 008°52'0 0.0
2014-Dec-08 09:29N 38°31' W 008°52'0 0.0
2014-Dec-08 08:32N 38°31' W 008°52'0 0.0
2014-Dec-08 07:26N 38°31' W 008°52'0 0.0
2014-Dec-08 06:26N 38°31' W 008°52'0 0.0
2014-Dec-08 05:29N 38°31' W 008°52'0 0.0
2014-Dec-08 04:32N 38°31' W 008°52'0 0.0
2014-Dec-08 03:32N 38°31' W 008°52'0 0.0
2014-Dec-08 02:32N 38°31' W 008°52'0 0.0
2014-Dec-08 01:32N 38°31' W 008°52'0 0.0
2014-Dec-08 00:32N 38°31' W 008°52'0 0.0
2014-Dec-07 23:29N 38°31' W 008°52'0 0.0
2014-Dec-07 22:26N 38°31' W 008°52'0 0.0
2014-Dec-07 21:29N 38°31' W 008°52'0 0.0
2014-Dec-07 20:23N 38°31' W 008°52'0 0.0
2014-Dec-07 18:26N 38°31' W 008°52'0 0.0
2014-Dec-07 17:26N 38°31' W 008°52'0 0.0
2014-Dec-07 16:29N 38°31' W 008°52'0 0.0
2014-Dec-07 15:29N 38°31' W 008°52'0 0.0
2014-Dec-07 14:32N 38°31' W 008°52'0 0.0
2014-Dec-07 13:32N 38°31' W 008°52'0 0.0
2014-Dec-07 12:29N 38°31' W 008°52'0 0.0
2014-Dec-07 11:32N 38°31' W 008°52'0 0.0
2014-Dec-07 10:32N 38°31' W 008°52'0 0.0
2014-Dec-07 09:32N 38°31' W 008°52'0 0.0
2014-Dec-07 08:32N 38°31' W 008°52'0 0.0
2014-Dec-07 07:32N 38°31' W 008°52'0 0.0
2014-Dec-07 06:32N 38°31' W 008°52'0 0.0
2014-Dec-07 05:32N 38°31' W 008°52'0 0.0
2014-Dec-07 04:29N 38°31' W 008°52'0 0.0
2014-Dec-07 03:20N 38°31' W 008°52'0 0.0
2014-Dec-07 02:29N 38°31' W 008°52'0 0.0
2014-Dec-07 01:32N 38°31' W 008°52'0 0.0
2014-Dec-07 00:20N 38°31' W 008°52'0 0.0
2014-Dec-06 23:26N 38°31' W 008°52'0 0.0
2014-Dec-06 22:05N 38°31' W 008°52'0 0.0
2014-Dec-06 21:17N 38°31' W 008°52'0 0.0
2014-Dec-06 20:26N 38°31' W 008°52'0 0.0
2014-Dec-06 19:32N 38°31' W 008°52'0 0.0
2014-Dec-06 18:32N 38°31' W 008°52'0 0.0
2014-Dec-06 17:26N 38°31' W 008°52'0 0.0
2014-Dec-06 16:32N 38°31' W 008°52'0 0.0
2014-Dec-06 15:32N 38°31' W 008°52'0 0.0
2014-Dec-06 14:32N 38°31' W 008°52'0 0.0
2014-Dec-06 13:29N 38°31' W 008°52'0 0.0
2014-Dec-06 12:32N 38°31' W 008°52'0 0.0
2014-Dec-06 11:32N 38°31' W 008°52'0 0.0
2014-Dec-06 10:32N 38°31' W 008°52'0 0.0
2014-Dec-06 09:32N 38°31' W 008°52'0 0.0
2014-Dec-06 08:32N 38°31' W 008°52'0 0.0
2014-Dec-06 07:32N 38°31' W 008°52'0 0.0
2014-Dec-06 06:32N 38°31' W 008°52'0 0.0
2014-Dec-06 05:32N 38°31' W 008°52'0 0.0
2014-Dec-06 04:32N 38°31' W 008°52'0 0.0
2014-Dec-06 03:32N 38°31' W 008°52'0 0.0
2014-Dec-06 02:32N 38°31' W 008°52'0 0.0
2014-Dec-06 01:29N 38°31' W 008°52'0 0.0
2014-Dec-06 00:32N 38°31' W 008°52'0 0.0
2014-Dec-05 23:33N 38°31' W 008°52'0 0.4
2014-Dec-05 22:33N 38°31' W 008°53'8 7.8
2014-Dec-05 21:33N 38°26' W 009°00'7 7.1
2014-Dec-05 20:32N 38°23' W 009°08'8 8.4
2014-Dec-05 19:33N 38°22' W 009°19'9 8.5
2014-Dec-05 18:33N 38°25' W 009°29'8 7.8
2014-Dec-05 17:33N 38°28' W 009°38'7 7.0
2014-Dec-05 16:33N 38°32' W 009°46'8 7.5
2014-Dec-05 15:33N 38°33' W 009°56'8 7.5
2014-Dec-05 14:33N 38°38' W 010°04'  
Track history (hours):
 
Tides and Currents Weather Stations Pressure Air Temp Water Temp Dewpoint Dewpoint Depression Visibility Wind Speed Wind Dir Waves Ship Positions

Mehmet Bey

Last reported at 2014-Dec-12 13:17 UTC. Time now 2014-Dec-19 15:51 UTC.
Position N 36°26' W 001°39'.

Length 131 m; draft 8.1 m.

Type: Cargo ship. MMSI: 248864000.

Date/timePositionNaut miles runAvg speedWind from/ knotsBaromVisibWave heightAir tempDewpointWater temp
2014-Dec-12 13:17N 36°26' W 001°39'175 8.8
2014-Dec-11 17:33N 36°01' W 005°13'9 9.1
2014-Dec-11 16:33N 35°58' W 005°24'214 6.6
2014-Dec-10 08:10N 37°42' W 009°17'5 8.9
2014-Dec-10 07:33N 37°47' W 009°15'8 8.4
2014-Dec-10 06:33N 37°55' W 009°12'8 8.4
2014-Dec-10 05:33N 38°03' W 009°09'9 8.6
2014-Dec-10 04:33N 38°11' W 009°05'9 8.8
2014-Dec-10 03:33N 38°20' W 009°02'8 8.3
2014-Dec-10 02:33N 38°27' W 008°58'6 5.5
2014-Dec-10 01:32N 38°31' W 008°52'0 0.0
2014-Dec-10 00:32N 38°31' W 008°52'0 0.0
2014-Dec-09 23:32N 38°31' W 008°52'0 0.0
2014-Dec-09 22:32N 38°31' W 008°52'0 0.0
2014-Dec-09 21:29N 38°31' W 008°52'0 0.0
2014-Dec-09 20:29N 38°31' W 008°52'0 0.0
2014-Dec-09 19:29N 38°31' W 008°52'0 0.0
2014-Dec-09 18:32N 38°31' W 008°52'0 0.0
2014-Dec-09 17:26N 38°31' W 008°52'0 0.0
2014-Dec-09 16:32N 38°31' W 008°52'0 0.0
2014-Dec-09 15:26N 38°31' W 008°52'0 0.0
2014-Dec-09 14:32N 38°31' W 008°52'0 0.0
2014-Dec-09 13:32N 38°31' W 008°52'0 0.0
2014-Dec-09 12:32N 38°31' W 008°52'0 0.0
2014-Dec-09 11:29N 38°31' W 008°52'0 0.0
2014-Dec-09 10:32N 38°31' W 008°52'0 0.0
2014-Dec-09 09:32N 38°31' W 008°52'0 0.0
2014-Dec-09 08:32N 38°31' W 008°52'0 0.0
2014-Dec-09 07:32N 38°31' W 008°52'0 0.0
2014-Dec-09 06:29N 38°31' W 008°52'0 0.0
2014-Dec-09 05:32N 38°31' W 008°52'0 0.0
2014-Dec-09 04:32N 38°31' W 008°52'0 0.0
2014-Dec-09 03:32N 38°31' W 008°52'0 0.0
2014-Dec-09 02:32N 38°31' W 008°52'0 0.0
2014-Dec-09 01:32N 38°31' W 008°52'0 0.0
2014-Dec-09 00:32N 38°31' W 008°52'0 0.0
2014-Dec-08 23:26N 38°31' W 008°52'0 0.0
2014-Dec-08 22:29N 38°31' W 008°52'0 0.0
2014-Dec-08 21:32N 38°31' W 008°52'0 0.0
2014-Dec-08 20:17N 38°31' W 008°52'0 0.0
2014-Dec-08 19:32N 38°31' W 008°52'0 0.0
2014-Dec-08 18:32N 38°31' W 008°52'0 0.0
2014-Dec-08 17:23N 38°31' W 008°52'0 0.0
2014-Dec-08 16:26N 38°31' W 008°52'0 0.0
2014-Dec-08 15:32N 38°31' W 008°52'0 0.0
2014-Dec-08 14:26N 38°31' W 008°52'0 0.0
2014-Dec-08 13:29N 38°31' W 008°52'0 0.0
2014-Dec-08 12:23N 38°31' W 008°52'0 0.0
2014-Dec-08 11:17N 38°31' W 008°52'0 0.0
2014-Dec-08 10:29N 38°31' W 008°52'0 0.0
2014-Dec-08 09:29N 38°31' W 008°52'0 0.0
2014-Dec-08 08:32N 38°31' W 008°52'0 0.0
2014-Dec-08 07:26N 38°31' W 008°52'0 0.0
2014-Dec-08 06:26N 38°31' W 008°52'0 0.0
2014-Dec-08 05:29N 38°31' W 008°52'0 0.0
2014-Dec-08 04:32N 38°31' W 008°52'0 0.0
2014-Dec-08 03:32N 38°31' W 008°52'0 0.0
2014-Dec-08 02:32N 38°31' W 008°52'0 0.0
2014-Dec-08 01:32N 38°31' W 008°52'0 0.0
2014-Dec-08 00:32N 38°31' W 008°52'0 0.0
2014-Dec-07 23:29N 38°31' W 008°52'0 0.0
2014-Dec-07 22:26N 38°31' W 008°52'0 0.0
2014-Dec-07 21:29N 38°31' W 008°52'0 0.0
2014-Dec-07 20:23N 38°31' W 008°52'0 0.0
2014-Dec-07 18:26N 38°31' W 008°52'0 0.0
2014-Dec-07 17:26N 38°31' W 008°52'0 0.0
2014-Dec-07 16:29N 38°31' W 008°52'0 0.0
2014-Dec-07 15:29N 38°31' W 008°52'0 0.0
2014-Dec-07 14:32N 38°31' W 008°52'0 0.0
2014-Dec-07 13:32N 38°31' W 008°52'0 0.0
2014-Dec-07 12:29N 38°31' W 008°52'0 0.0
2014-Dec-07 11:32N 38°31' W 008°52'0 0.0
2014-Dec-07 10:32N 38°31' W 008°52'0 0.0
2014-Dec-07 09:32N 38°31' W 008°52'0 0.0
2014-Dec-07 08:32N 38°31' W 008°52'0 0.0
2014-Dec-07 07:32N 38°31' W 008°52'0 0.0
2014-Dec-07 06:32N 38°31' W 008°52'0 0.0
2014-Dec-07 05:32N 38°31' W 008°52'0 0.0
2014-Dec-07 04:29N 38°31' W 008°52'0 0.0
2014-Dec-07 03:20N 38°31' W 008°52'0 0.0
2014-Dec-07 02:29N 38°31' W 008°52'0 0.0
2014-Dec-07 01:32N 38°31' W 008°52'0 0.0
2014-Dec-07 00:20N 38°31' W 008°52'0 0.0
2014-Dec-06 23:26N 38°31' W 008°52'0 0.0
2014-Dec-06 22:05N 38°31' W 008°52'0 0.0
2014-Dec-06 21:17N 38°31' W 008°52'0 0.0
2014-Dec-06 20:26N 38°31' W 008°52'0 0.0
2014-Dec-06 19:32N 38°31' W 008°52'0 0.0
2014-Dec-06 18:32N 38°31' W 008°52'0 0.0
2014-Dec-06 17:26N 38°31' W 008°52'0 0.0
2014-Dec-06 16:32N 38°31' W 008°52'0 0.0
2014-Dec-06 15:32N 38°31' W 008°52'0 0.0
2014-Dec-06 14:32N 38°31' W 008°52'0 0.0
2014-Dec-06 13:29N 38°31' W 008°52'0 0.0
2014-Dec-06 12:32N 38°31' W 008°52'0 0.0
2014-Dec-06 11:32N 38°31' W 008°52'0 0.0
2014-Dec-06 10:32N 38°31' W 008°52'0 0.0
2014-Dec-06 09:32N 38°31' W 008°52'0 0.0
2014-Dec-06 08:32N 38°31' W 008°52'0 0.0
2014-Dec-06 07:32N 38°31' W 008°52'0 0.0
2014-Dec-06 06:32N 38°31' W 008°52'0 0.0
2014-Dec-06 05:32N 38°31' W 008°52'0 0.0
2014-Dec-06 04:32N 38°31' W 008°52'0 0.0
2014-Dec-06 03:32N 38°31' W 008°52'0 0.0
2014-Dec-06 02:32N 38°31' W 008°52'0 0.0
2014-Dec-06 01:29N 38°31' W 008°52'0 0.0
2014-Dec-06 00:32N 38°31' W 008°52'0 0.0
2014-Dec-05 23:33N 38°31' W 008°52'0 0.4
2014-Dec-05 22:33N 38°31' W 008°53'8 7.8
2014-Dec-05 21:33N 38°26' W 009°00'7 7.1
2014-Dec-05 20:32N 38°23' W 009°08'8 8.4
2014-Dec-05 19:33N 38°22' W 009°19'9 8.5
2014-Dec-05 18:33N 38°25' W 009°29'8 7.8
2014-Dec-05 17:33N 38°28' W 009°38'7 7.0
2014-Dec-05 16:33N 38°32' W 009°46'8 7.5
2014-Dec-05 15:33N 38°33' W 009°56'8 7.5
2014-Dec-05 14:33N 38°38' W 010°04'  

Dump ship's entire track history